createdAt,value
2017-02-09T00:00:16.721Z,0
2017-02-09T00:00:57.210Z,0
2017-02-09T00:01:37.743Z,0
2017-02-09T00:02:18.191Z,0
2017-02-09T00:02:58.760Z,0
2017-02-09T00:03:39.213Z,0
2017-02-09T00:04:19.739Z,0
2017-02-09T00:05:01.108Z,0
2017-02-09T00:05:41.588Z,0
2017-02-09T00:06:22.113Z,0
2017-02-09T00:07:02.619Z,0
2017-02-09T00:07:43.128Z,0
2017-02-09T00:08:23.559Z,0
2017-02-09T00:09:04.134Z,0
2017-02-09T00:09:44.537Z,0
2017-02-09T00:10:25.027Z,0
2017-02-09T00:11:05.548Z,0
2017-02-09T00:11:46.076Z,0
2017-02-09T00:12:26.522Z,0
2017-02-09T00:13:07.017Z,0
2017-02-09T00:13:47.624Z,0
2017-02-09T00:14:28.001Z,0
2017-02-09T00:15:08.601Z,0
2017-02-09T00:15:49.081Z,0
2017-02-09T00:16:29.551Z,0
2017-02-09T00:17:10.090Z,0
2017-02-09T00:17:50.620Z,0
2017-02-09T00:18:31.251Z,0
2017-02-09T00:19:11.734Z,0
2017-02-09T00:19:52.207Z,0
2017-02-09T00:20:32.747Z,0
2017-02-09T00:21:13.281Z,0
2017-02-09T00:21:53.758Z,0
2017-02-09T00:22:34.320Z,0
2017-02-09T00:23:14.725Z,0
2017-02-09T00:23:55.268Z,0
2017-02-09T00:24:35.747Z,0
2017-02-09T00:25:16.282Z,0
2017-02-09T00:25:56.781Z,0
2017-02-09T00:26:37.262Z,0
2017-02-09T00:27:17.719Z,0
2017-02-09T00:27:58.222Z,0
2017-02-09T00:28:38.731Z,0
2017-02-09T00:29:19.187Z,0
2017-02-09T00:29:59.714Z,0
2017-02-09T00:30:40.258Z,0
2017-02-09T00:31:20.766Z,0
2017-02-09T00:32:01.225Z,0
2017-02-09T00:32:41.710Z,0
2017-02-09T00:33:22.250Z,0
2017-02-09T00:34:02.706Z,0
2017-02-09T00:34:43.257Z,0
2017-02-09T00:35:23.784Z,0
2017-02-09T00:36:04.266Z,0
2017-02-09T00:36:44.785Z,0
2017-02-09T00:37:25.274Z,0
2017-02-09T00:38:05.779Z,0
2017-02-09T00:38:46.282Z,0
2017-02-09T00:39:26.783Z,0
2017-02-09T00:40:07.269Z,0
2017-02-09T00:40:47.745Z,0
2017-02-09T00:41:28.234Z,0
2017-02-09T00:42:08.769Z,0
2017-02-09T00:42:49.250Z,0
2017-02-09T00:43:29.715Z,0
2017-02-09T00:44:10.223Z,0
2017-02-09T00:44:50.689Z,0
2017-02-09T00:45:31.222Z,0
2017-02-09T00:46:11.721Z,0
2017-02-09T00:46:52.176Z,0
2017-02-09T00:47:32.723Z,0
2017-02-09T00:48:13.193Z,0
2017-02-09T00:48:53.686Z,0
2017-02-09T00:49:34.212Z,0
2017-02-09T00:50:14.691Z,0
2017-02-09T00:50:55.185Z,0
2017-02-09T00:51:35.679Z,0
2017-02-09T00:52:16.423Z,0
2017-02-09T00:52:57.105Z,0
2017-02-09T00:53:37.612Z,0
2017-02-09T00:54:18.101Z,0
2017-02-09T00:54:58.577Z,0
2017-02-09T00:55:39.110Z,0
2017-02-09T00:56:19.641Z,0
2017-02-09T00:57:00.092Z,0
2017-02-09T00:57:40.612Z,0
2017-02-09T00:58:21.121Z,0
2017-02-09T00:59:01.555Z,0
2017-02-09T00:59:42.090Z,0
2017-02-09T01:00:22.613Z,0
2017-02-09T01:01:03.079Z,0
2017-02-09T01:01:43.564Z,0
2017-02-09T01:02:24.015Z,0
2017-02-09T01:03:04.558Z,0
2017-02-09T01:03:45.028Z,0
2017-02-09T01:04:25.586Z,0
2017-02-09T01:05:06.042Z,0
2017-02-09T01:05:46.535Z,0
2017-02-09T01:06:27.041Z,0
2017-02-09T01:07:07.510Z,0
2017-02-09T01:07:47.996Z,0
2017-02-09T01:08:28.447Z,0
2017-02-09T01:09:08.988Z,0
2017-02-09T01:09:49.467Z,0
2017-02-09T01:10:29.972Z,0
2017-02-09T01:11:10.431Z,0
2017-02-09T01:11:50.939Z,0
2017-02-09T01:12:31.387Z,0
2017-02-09T01:13:11.903Z,0
2017-02-09T01:13:52.353Z,0
2017-02-09T01:14:32.815Z,0
2017-02-09T01:15:13.297Z,0
2017-02-09T01:15:53.828Z,0
2017-02-09T01:16:34.299Z,0
2017-02-09T01:17:14.767Z,0
2017-02-09T01:17:55.343Z,0
2017-02-09T01:18:35.814Z,0
2017-02-09T01:19:16.308Z,0
2017-02-09T01:19:56.794Z,0
2017-02-09T01:20:37.292Z,0
2017-02-09T01:21:17.793Z,0
2017-02-09T01:21:58.389Z,0
2017-02-09T01:22:38.787Z,0
2017-02-09T01:23:19.256Z,0
2017-02-09T01:23:59.781Z,0
2017-02-09T01:24:40.234Z,0
2017-02-09T01:25:20.766Z,0
2017-02-09T01:26:01.258Z,0
2017-02-09T01:26:41.709Z,0
2017-02-09T01:27:22.197Z,0
2017-02-09T01:28:02.673Z,0
2017-02-09T01:28:43.204Z,0
2017-02-09T01:29:23.663Z,0
2017-02-09T01:30:04.175Z,0
2017-02-09T01:30:44.673Z,0
2017-02-09T01:31:25.152Z,0
2017-02-09T01:32:05.672Z,0
2017-02-09T01:32:46.148Z,0
2017-02-09T01:33:26.655Z,0
2017-02-09T01:34:07.139Z,0
2017-02-09T01:34:47.656Z,0
2017-02-09T01:35:28.151Z,0
2017-02-09T01:36:08.648Z,0
2017-02-09T01:36:49.136Z,0
2017-02-09T01:37:29.656Z,0
2017-02-09T01:38:10.132Z,0
2017-02-09T01:38:50.668Z,0
2017-02-09T01:39:31.135Z,0
2017-02-09T01:40:11.623Z,0
2017-02-09T01:40:52.215Z,0
2017-02-09T01:41:32.731Z,0
2017-02-09T01:42:13.247Z,0
2017-02-09T01:42:53.679Z,0
2017-02-09T01:43:34.170Z,0
2017-02-09T01:44:14.715Z,0
2017-02-09T01:44:55.234Z,0
2017-02-09T01:45:35.711Z,0
2017-02-09T01:46:16.208Z,0
2017-02-09T01:46:56.707Z,0
2017-02-09T01:47:37.122Z,0
2017-02-09T01:48:17.645Z,0
2017-02-09T01:48:58.152Z,0
2017-02-09T01:49:38.620Z,0
2017-02-09T01:50:19.138Z,0
2017-02-09T01:50:59.672Z,0
2017-02-09T01:51:40.188Z,0
2017-02-09T01:52:20.728Z,0
2017-02-09T01:53:01.209Z,0
2017-02-09T01:53:41.715Z,0
2017-02-09T01:54:22.296Z,0
2017-02-09T01:55:02.730Z,0
2017-02-09T01:55:43.246Z,0
2017-02-09T01:56:23.715Z,0
2017-02-09T01:57:04.221Z,0
2017-02-09T01:57:44.711Z,0
2017-02-09T01:58:25.212Z,0
2017-02-09T01:59:05.710Z,0
2017-02-09T01:59:46.207Z,0
2017-02-09T02:00:26.760Z,0
2017-02-09T02:01:07.210Z,0
2017-02-09T02:01:47.684Z,0
2017-02-09T02:02:28.179Z,0
2017-02-09T02:03:08.733Z,0
2017-02-09T02:03:49.185Z,0
2017-02-09T02:04:29.721Z,0
2017-02-09T02:05:10.209Z,0
2017-02-09T02:05:50.684Z,0
2017-02-09T02:06:31.168Z,0
2017-02-09T02:07:11.791Z,0
2017-02-09T02:07:52.195Z,0
2017-02-09T02:08:32.714Z,0
2017-02-09T02:09:13.184Z,0
2017-02-09T02:09:53.662Z,0
2017-02-09T02:10:34.238Z,0
2017-02-09T02:11:14.658Z,0
2017-02-09T02:11:55.173Z,0
2017-02-09T02:12:35.657Z,0
2017-02-09T02:13:16.205Z,0
2017-02-09T02:13:56.683Z,0
2017-02-09T02:14:37.866Z,0
2017-02-09T02:15:18.370Z,0
2017-02-09T02:15:58.896Z,0
2017-02-09T02:16:39.358Z,0
2017-02-09T02:17:19.850Z,0
2017-02-09T02:18:00.409Z,0
2017-02-09T02:18:40.871Z,0
2017-02-09T02:19:21.320Z,0
2017-02-09T02:20:01.792Z,0
2017-02-09T02:20:42.406Z,0
2017-02-09T02:21:22.868Z,0
2017-02-09T02:22:03.376Z,0
2017-02-09T02:22:43.855Z,0
2017-02-09T02:23:24.474Z,0
2017-02-09T02:24:04.985Z,0
2017-02-09T02:24:45.507Z,0
2017-02-09T02:25:25.988Z,0
2017-02-09T02:26:06.426Z,0
2017-02-09T02:26:46.944Z,0
2017-02-09T02:27:27.496Z,0
2017-02-09T02:28:07.973Z,0
2017-02-09T02:28:48.537Z,0
2017-02-09T02:29:29.040Z,0
2017-02-09T02:30:09.529Z,0
2017-02-09T02:30:50.037Z,0
2017-02-09T02:31:30.577Z,0
2017-02-09T02:32:11.086Z,0
2017-02-09T02:32:51.631Z,0
2017-02-09T02:33:32.092Z,0
2017-02-09T02:34:12.573Z,0
2017-02-09T02:34:53.105Z,0
2017-02-09T02:35:33.625Z,0
2017-02-09T02:36:14.110Z,0
2017-02-09T02:36:54.600Z,0
2017-02-09T02:37:35.091Z,0
2017-02-09T02:38:15.530Z,0
2017-02-09T02:38:56.062Z,0
2017-02-09T02:39:36.579Z,0
2017-02-09T02:40:17.045Z,0
2017-02-09T02:40:57.567Z,0
2017-02-09T02:41:38.061Z,0
2017-02-09T02:42:18.652Z,0
2017-02-09T02:42:59.062Z,0
2017-02-09T02:43:39.552Z,0
2017-02-09T02:44:20.074Z,0
2017-02-09T02:45:00.513Z,0
2017-02-09T02:45:41.029Z,0
2017-02-09T02:46:21.501Z,0
2017-02-09T02:47:01.962Z,0
2017-02-09T02:47:42.507Z,0
2017-02-09T02:48:23.000Z,0
2017-02-09T02:49:03.501Z,0
2017-02-09T02:49:43.966Z,0
2017-02-09T02:50:24.511Z,0
2017-02-09T02:51:04.927Z,0
2017-02-09T02:51:45.424Z,0
2017-02-09T02:52:25.954Z,0
2017-02-09T02:53:06.434Z,0
2017-02-09T02:53:46.929Z,0
2017-02-09T02:54:27.408Z,0
2017-02-09T02:55:08.023Z,0
2017-02-09T02:55:48.492Z,0
2017-02-09T02:56:28.952Z,0
2017-02-09T02:57:09.515Z,0
2017-02-09T02:57:49.946Z,0
2017-02-09T02:58:30.405Z,0
2017-02-09T02:59:10.980Z,0
2017-02-09T02:59:51.407Z,0
2017-02-09T03:00:31.900Z,0
2017-02-09T03:01:12.397Z,0
2017-02-09T03:01:53.061Z,0
2017-02-09T03:02:33.428Z,0
2017-02-09T03:03:13.914Z,0
2017-02-09T03:03:54.363Z,0
2017-02-09T03:04:34.859Z,0
2017-02-09T03:05:15.392Z,0
2017-02-09T03:05:55.812Z,0
2017-02-09T03:06:36.328Z,0
2017-02-09T03:07:16.793Z,0
2017-02-09T03:07:57.304Z,0
2017-02-09T03:08:37.812Z,0
2017-02-09T03:09:18.316Z,0
2017-02-09T03:09:58.801Z,0
2017-02-09T03:10:39.293Z,0
2017-02-09T03:11:19.762Z,0
2017-02-09T03:12:00.240Z,0
2017-02-09T03:12:40.788Z,0
2017-02-09T03:13:21.245Z,0
2017-02-09T03:14:01.751Z,0
2017-02-09T03:14:42.201Z,0
2017-02-09T03:15:22.683Z,0
2017-02-09T03:16:03.198Z,0
2017-02-09T03:16:43.700Z,0
2017-02-09T03:17:24.158Z,0
2017-02-09T03:18:04.656Z,0
2017-02-09T03:18:45.144Z,0
2017-02-09T03:19:25.636Z,0
2017-02-09T03:20:06.154Z,0
2017-02-09T03:20:46.628Z,0
2017-02-09T03:21:27.073Z,0
2017-02-09T03:22:07.636Z,0
2017-02-09T03:22:48.111Z,0
2017-02-09T03:23:28.564Z,0
2017-02-09T03:24:09.103Z,0
2017-02-09T03:24:49.526Z,0
2017-02-09T03:25:30.053Z,0
2017-02-09T03:26:10.532Z,0
2017-02-09T03:26:50.978Z,0
2017-02-09T03:27:31.492Z,0
2017-02-09T03:28:11.994Z,0
2017-02-09T03:28:52.490Z,0
2017-02-09T03:29:32.933Z,0
2017-02-09T03:30:13.405Z,0
2017-02-09T03:30:54.018Z,0
2017-02-09T03:31:34.582Z,0
2017-02-09T03:32:14.982Z,0
2017-02-09T03:32:55.522Z,0
2017-02-09T03:33:36.039Z,0
2017-02-09T03:34:16.555Z,0
2017-02-09T03:34:57.053Z,0
2017-02-09T03:35:37.516Z,0
2017-02-09T03:36:18.023Z,0
2017-02-09T03:36:58.525Z,0
2017-02-09T03:37:39.005Z,0
2017-02-09T03:38:19.480Z,0
2017-02-09T03:38:59.977Z,0
2017-02-09T03:39:40.472Z,0
2017-02-09T03:40:21.033Z,0
2017-02-09T03:41:01.455Z,0
2017-02-09T03:41:41.951Z,0
2017-02-09T03:42:22.464Z,0
2017-02-09T03:43:02.947Z,0
2017-02-09T03:43:43.462Z,0
2017-02-09T03:44:23.903Z,0
2017-02-09T03:45:04.427Z,0
2017-02-09T03:45:44.991Z,0
2017-02-09T03:46:25.407Z,0
2017-02-09T03:47:05.862Z,0
2017-02-09T03:47:46.386Z,0
2017-02-09T03:48:26.875Z,0
2017-02-09T03:49:07.330Z,0
2017-02-09T03:49:47.865Z,0
2017-02-09T03:50:28.369Z,0
2017-02-09T03:51:08.794Z,0
2017-02-09T03:51:49.279Z,0
2017-02-09T03:52:29.754Z,0
2017-02-09T03:53:10.236Z,0
2017-02-09T03:53:50.741Z,0
2017-02-09T03:54:31.234Z,0
2017-02-09T03:55:11.725Z,0
2017-02-09T03:55:52.273Z,0
2017-02-09T03:56:32.790Z,0
2017-02-09T03:57:13.470Z,0
2017-02-09T03:57:53.862Z,0
2017-02-09T03:58:34.358Z,0
2017-02-09T03:59:14.871Z,0
2017-02-09T03:59:55.331Z,0
2017-02-09T04:00:35.832Z,0
2017-02-09T04:01:16.337Z,0
2017-02-09T04:01:56.816Z,0
2017-02-09T04:02:37.275Z,0
2017-02-09T04:03:17.812Z,0
2017-02-09T04:03:58.299Z,0
2017-02-09T04:04:38.747Z,0
2017-02-09T04:05:19.288Z,0
2017-02-09T04:05:59.790Z,0
2017-02-09T04:06:40.229Z,0
2017-02-09T04:07:20.724Z,0
2017-02-09T04:08:01.223Z,0
2017-02-09T04:08:41.732Z,0
2017-02-09T04:09:22.208Z,0
2017-02-09T04:10:02.682Z,0
2017-02-09T04:10:43.141Z,0
2017-02-09T04:11:23.689Z,0
2017-02-09T04:12:04.121Z,0
2017-02-09T04:12:44.593Z,0
2017-02-09T04:13:25.110Z,0
2017-02-09T04:14:05.580Z,0
2017-02-09T04:14:46.057Z,0
2017-02-09T04:15:26.569Z,0
2017-02-09T04:16:07.052Z,0
2017-02-09T04:16:47.557Z,0
2017-02-09T04:17:28.025Z,0
2017-02-09T04:18:08.568Z,0
2017-02-09T04:18:49.046Z,0
2017-02-09T04:19:29.543Z,0
2017-02-09T04:20:10.420Z,0
2017-02-09T04:20:50.891Z,0
2017-02-09T04:21:31.371Z,0
2017-02-09T04:22:11.884Z,0
2017-02-09T04:22:52.387Z,0
2017-02-09T04:23:35.267Z,0
2017-02-09T04:24:15.726Z,0
2017-02-09T04:24:56.263Z,0
2017-02-09T04:25:36.673Z,0
2017-02-09T04:26:17.150Z,0
2017-02-09T04:26:57.665Z,0
2017-02-09T04:27:38.163Z,0
2017-02-09T04:28:18.615Z,0
2017-02-09T04:28:59.135Z,0
2017-02-09T04:29:39.712Z,0
2017-02-09T04:30:20.291Z,0
2017-02-09T04:31:00.749Z,0
2017-02-09T04:31:41.314Z,0
2017-02-09T04:32:21.858Z,0
2017-02-09T04:33:02.313Z,0
2017-02-09T04:33:42.765Z,0
2017-02-09T04:34:23.294Z,0
2017-02-09T04:35:03.727Z,0
2017-02-09T04:35:44.217Z,0
2017-02-09T04:36:24.721Z,0
2017-02-09T04:37:05.240Z,0
2017-02-09T04:37:45.695Z,0
2017-02-09T04:38:26.140Z,0
2017-02-09T04:39:06.649Z,0
2017-02-09T04:39:47.127Z,0
2017-02-09T04:40:27.735Z,0
2017-02-09T04:41:08.275Z,0
2017-02-09T04:41:48.789Z,0
2017-02-09T04:42:29.331Z,0
2017-02-09T04:43:09.846Z,0
2017-02-09T04:43:50.346Z,0
2017-02-09T04:44:30.903Z,0
2017-02-09T04:45:11.394Z,0
2017-02-09T04:45:51.900Z,0
2017-02-09T04:46:32.377Z,0
2017-02-09T04:47:12.857Z,0
2017-02-09T04:47:53.436Z,0
2017-02-09T04:48:33.881Z,0
2017-02-09T04:49:14.440Z,0
2017-02-09T04:49:54.972Z,0
2017-02-09T04:50:35.508Z,0
2017-02-09T04:51:16.091Z,0
2017-02-09T04:51:56.514Z,0
2017-02-09T04:52:37.058Z,0
2017-02-09T04:53:17.507Z,0
2017-02-09T04:53:58.081Z,0
2017-02-09T04:54:38.515Z,0
2017-02-09T04:55:19.079Z,0
2017-02-09T04:55:59.581Z,0
2017-02-09T04:56:40.053Z,0
2017-02-09T04:57:20.517Z,0
2017-02-09T04:58:01.062Z,0
2017-02-09T04:58:41.551Z,0
2017-02-09T04:59:22.041Z,0
2017-02-09T05:00:02.503Z,0
2017-02-09T05:00:43.059Z,0
2017-02-09T05:01:23.614Z,0
2017-02-09T05:02:04.128Z,0
2017-02-09T05:02:44.620Z,0
2017-02-09T05:03:25.219Z,0
2017-02-09T05:04:05.744Z,0
2017-02-09T05:04:46.235Z,0
2017-02-09T05:05:26.697Z,0
2017-02-09T05:06:07.177Z,0
2017-02-09T05:06:47.689Z,0
2017-02-09T05:07:28.259Z,0
2017-02-09T05:08:08.725Z,0
2017-02-09T05:08:49.169Z,0
2017-02-09T05:09:29.766Z,0
2017-02-09T05:10:10.212Z,0
2017-02-09T05:10:50.705Z,0
2017-02-09T05:11:31.216Z,0
2017-02-09T05:12:11.734Z,0
2017-02-09T05:12:52.232Z,0
2017-02-09T05:13:32.707Z,0
2017-02-09T05:14:13.255Z,0
2017-02-09T05:14:53.783Z,0
2017-02-09T05:15:34.434Z,0
2017-02-09T05:16:15.025Z,0
2017-02-09T05:16:55.617Z,0
2017-02-09T05:17:36.104Z,0
2017-02-09T05:18:16.605Z,0
2017-02-09T05:18:57.125Z,0
2017-02-09T05:19:37.569Z,0
2017-02-09T05:20:18.097Z,0
2017-02-09T05:20:58.782Z,0
2017-02-09T05:21:39.258Z,0
2017-02-09T05:22:19.757Z,0
2017-02-09T05:23:00.193Z,0
2017-02-09T05:23:40.667Z,0
2017-02-09T05:24:21.258Z,0
2017-02-09T05:25:01.727Z,0
2017-02-09T05:25:42.246Z,0
2017-02-09T05:26:22.736Z,0
2017-02-09T05:27:03.216Z,0
2017-02-09T05:27:43.752Z,0
2017-02-09T05:28:24.204Z,0
2017-02-09T05:29:04.701Z,0
2017-02-09T05:29:45.276Z,0
2017-02-09T05:30:25.722Z,0
2017-02-09T05:31:06.256Z,0
2017-02-09T05:31:46.728Z,0
2017-02-09T05:32:27.227Z,0
2017-02-09T05:33:07.657Z,0
2017-02-09T05:33:48.184Z,0
2017-02-09T05:34:28.669Z,0
2017-02-09T05:35:09.192Z,0
2017-02-09T05:35:49.718Z,0
2017-02-09T05:36:30.220Z,0
2017-02-09T05:37:10.710Z,0
2017-02-09T05:37:51.198Z,0
2017-02-09T05:38:31.704Z,0
2017-02-09T05:39:12.155Z,0
2017-02-09T05:39:52.666Z,0
2017-02-09T05:40:33.189Z,0
2017-02-09T05:41:13.652Z,0
2017-02-09T05:41:54.143Z,0
2017-02-09T05:42:34.670Z,0
2017-02-09T05:43:15.150Z,0
2017-02-09T05:43:55.693Z,0
2017-02-09T05:44:36.265Z,0
2017-02-09T05:45:16.751Z,0
2017-02-09T05:45:57.358Z,0
2017-02-09T05:46:37.821Z,0
2017-02-09T05:47:18.363Z,0
2017-02-09T05:47:58.901Z,0
2017-02-09T05:48:39.453Z,0
2017-02-09T05:49:19.911Z,0
2017-02-09T05:50:00.396Z,0
2017-02-09T05:50:40.880Z,0
2017-02-09T05:51:21.455Z,0
2017-02-09T05:52:02.128Z,0
2017-02-09T05:52:42.777Z,0
2017-02-09T05:53:23.233Z,0
2017-02-09T05:54:03.764Z,0
2017-02-09T05:54:44.263Z,0
2017-02-09T05:55:24.779Z,0
2017-02-09T05:56:05.310Z,0
2017-02-09T05:56:45.784Z,0
2017-02-09T05:57:26.371Z,0
2017-02-09T05:58:06.830Z,0
2017-02-09T05:58:47.390Z,0
2017-02-09T05:59:27.923Z,0
2017-02-09T06:00:08.529Z,0
2017-02-09T06:00:49.029Z,0
2017-02-09T06:01:30.075Z,0
2017-02-09T06:02:10.676Z,0
2017-02-09T06:02:51.265Z,0
2017-02-09T06:03:31.800Z,0
2017-02-09T06:04:12.329Z,0
2017-02-09T06:04:52.815Z,0
2017-02-09T06:05:33.270Z,0
2017-02-09T06:06:13.786Z,0
2017-02-09T06:06:54.276Z,0
2017-02-09T06:07:34.967Z,0
2017-02-09T06:08:15.467Z,0
2017-02-09T06:08:55.975Z,0
2017-02-09T06:09:36.467Z,0
2017-02-09T06:10:17.002Z,0
2017-02-09T06:10:57.551Z,0
2017-02-09T06:11:38.028Z,0
2017-02-09T06:12:18.588Z,0
2017-02-09T06:12:59.040Z,0
2017-02-09T06:13:39.536Z,4
2017-02-09T06:14:20.075Z,0
2017-02-09T06:15:00.548Z,0
2017-02-09T06:15:41.031Z,0
2017-02-09T06:16:21.476Z,4
2017-02-09T06:17:01.989Z,4
2017-02-09T06:17:42.498Z,4
2017-02-09T06:18:22.977Z,0
2017-02-09T06:19:03.465Z,4
2017-02-09T06:19:43.953Z,0
2017-02-09T06:20:24.493Z,4
2017-02-09T06:21:05.076Z,4
2017-02-09T06:21:45.558Z,4
2017-02-09T06:22:26.078Z,4
2017-02-09T06:23:06.518Z,8
2017-02-09T06:23:47.006Z,8
2017-02-09T06:24:27.503Z,8
2017-02-09T06:25:08.005Z,8
2017-02-09T06:25:48.609Z,8
2017-02-09T06:26:29.056Z,12
2017-02-09T06:27:09.643Z,12
2017-02-09T06:27:50.141Z,16
2017-02-09T06:28:30.654Z,16
2017-02-09T06:29:11.342Z,20
2017-02-09T06:29:51.801Z,20
2017-02-09T06:30:32.319Z,24
2017-02-09T06:31:12.817Z,24
2017-02-09T06:31:53.404Z,28
2017-02-09T06:32:33.908Z,32
2017-02-09T06:33:14.604Z,32
2017-02-09T06:33:54.893Z,36
2017-02-09T06:34:35.419Z,44
2017-02-09T06:35:16.036Z,44
2017-02-09T06:35:56.495Z,48
2017-02-09T06:36:37.132Z,52
2017-02-09T06:37:17.678Z,56
2017-02-09T06:37:58.128Z,60
2017-02-09T06:38:38.654Z,64
2017-02-09T06:39:19.111Z,68
2017-02-09T06:40:02.069Z,76
2017-02-09T06:40:42.902Z,76
2017-02-09T06:41:24.059Z,84
2017-02-09T06:42:08.623Z,88
2017-02-09T06:42:48.934Z,92
2017-02-09T06:43:29.779Z,104
2017-02-09T06:46:09.996Z,128
2017-02-09T06:48:41.926Z,156
2017-02-09T06:49:30.104Z,164
2017-02-09T06:50:19.998Z,176
2017-02-09T06:51:00.077Z,188
2017-02-09T06:51:41.478Z,200
2017-02-09T06:52:22.894Z,216
2017-02-09T06:53:04.162Z,228
2017-02-09T06:53:45.068Z,240
2017-02-09T06:54:25.638Z,256
2017-02-09T06:55:06.662Z,268
2017-02-09T06:55:47.188Z,276
2017-02-09T06:56:28.034Z,292
2017-02-09T06:57:08.845Z,304
2017-02-09T06:57:49.601Z,316
2017-02-09T06:58:29.971Z,332
2017-02-09T06:59:19.179Z,352
2017-02-09T06:59:58.555Z,372
2017-02-09T07:00:39.111Z,392
2017-02-09T07:01:19.732Z,404
2017-02-09T07:02:00.234Z,416
2017-02-09T07:02:40.815Z,428
2017-02-09T07:03:21.324Z,436
2017-02-09T07:04:01.824Z,456
2017-02-09T07:04:42.310Z,476
2017-02-09T07:05:23.014Z,492
2017-02-09T07:06:04.224Z,512
2017-02-09T07:06:44.694Z,528
2017-02-09T07:07:25.180Z,540
2017-02-09T07:08:05.637Z,556
2017-02-09T07:08:46.148Z,568
2017-02-09T07:09:26.710Z,584
2017-02-09T07:10:07.148Z,604
2017-02-09T07:10:47.610Z,632
2017-02-09T07:11:28.084Z,664
2017-02-09T07:12:08.998Z,692
2017-02-09T07:12:49.530Z,712
2017-02-09T07:13:30.208Z,736
2017-02-09T07:14:10.668Z,748
2017-02-09T07:14:51.106Z,760
2017-02-09T07:15:31.605Z,776
2017-02-09T07:16:12.179Z,788
2017-02-09T07:16:52.715Z,804
2017-02-09T07:17:33.530Z,828
2017-02-09T07:18:14.606Z,844
2017-02-09T07:19:00.086Z,868
2017-02-09T07:19:50.230Z,888
2017-02-09T07:20:43.031Z,904
2017-02-09T07:22:54.299Z,936
2017-02-09T07:23:34.610Z,944
2017-02-09T07:24:15.409Z,952
2017-02-09T07:24:55.788Z,952
2017-02-09T07:25:36.333Z,960
2017-02-09T07:26:16.813Z,968
2017-02-09T07:26:57.291Z,972
2017-02-09T07:27:37.771Z,980
2017-02-09T07:28:18.263Z,992
2017-02-09T07:28:58.798Z,1004
2017-02-09T07:29:39.337Z,1020
2017-02-09T07:30:19.753Z,1040
2017-02-09T07:31:00.274Z,1064
2017-02-09T07:31:40.754Z,1088
2017-02-09T07:34:11.478Z,1148
2017-02-09T07:34:51.674Z,1160
2017-02-09T07:35:32.178Z,1172
2017-02-09T07:36:12.699Z,1180
2017-02-09T07:36:53.162Z,1188
2017-02-09T07:37:33.670Z,1208
2017-02-09T07:38:14.154Z,1228
2017-02-09T07:38:54.614Z,1244
2017-02-09T07:39:35.205Z,1268
2017-02-09T07:40:15.711Z,1276
2017-02-09T07:40:56.268Z,1284
2017-02-09T07:41:36.934Z,1296
2017-02-09T07:42:17.405Z,1304
2017-02-09T07:42:58.037Z,1316
2017-02-09T07:43:38.549Z,1324
2017-02-09T07:44:19.056Z,1336
2017-02-09T07:44:59.858Z,1352
2017-02-09T07:45:40.432Z,1368
2017-02-09T07:46:21.286Z,1384
2017-02-09T07:47:01.688Z,1408
2017-02-09T07:47:42.211Z,1428
2017-02-09T07:48:22.672Z,1456
2017-02-09T07:49:03.214Z,1488
2017-02-09T07:49:44.584Z,1524
2017-02-09T07:50:27.153Z,1568
2017-02-09T07:52:54.949Z,1724
2017-02-09T07:53:35.367Z,1748
2017-02-09T07:54:15.892Z,1776
2017-02-09T07:54:56.373Z,1800
2017-02-09T07:55:36.903Z,1824
2017-02-09T07:56:17.410Z,1840
2017-02-09T07:56:57.924Z,1844
2017-02-09T07:57:38.403Z,1848
2017-02-09T07:58:18.867Z,1856
2017-02-09T07:58:59.437Z,1880
2017-02-09T07:59:39.901Z,1900
2017-02-09T08:00:20.336Z,1912
2017-02-09T08:01:00.917Z,1932
2017-02-09T08:01:41.472Z,1956
2017-02-09T08:02:21.981Z,1980
2017-02-09T08:03:02.510Z,1996
2017-02-09T08:03:43.125Z,2016
2017-02-09T08:04:23.610Z,2048
2017-02-09T08:05:04.280Z,2072
2017-02-09T08:05:44.608Z,2100
2017-02-09T08:06:25.094Z,2132
2017-02-09T08:07:05.579Z,2164
2017-02-09T08:07:46.062Z,2188
2017-02-09T08:08:26.591Z,2208
2017-02-09T08:09:07.177Z,2232
2017-02-09T08:09:47.615Z,2176
2017-02-09T08:10:28.066Z,2080
2017-02-09T08:11:08.534Z,2236
2017-02-09T08:11:49.137Z,2264
2017-02-09T08:12:29.647Z,2184
2017-02-09T08:13:10.094Z,2200
2017-02-09T08:13:50.634Z,2272
2017-02-09T08:14:31.088Z,2244
2017-02-09T08:15:11.648Z,2344
2017-02-09T08:15:52.140Z,2408
2017-02-09T08:16:32.646Z,2436
2017-02-09T08:17:13.155Z,2452
2017-02-09T08:17:53.641Z,2464
2017-02-09T08:18:34.131Z,2476
2017-02-09T08:19:14.657Z,2496
2017-02-09T08:19:55.236Z,2508
2017-02-09T08:20:35.762Z,2528
2017-02-09T08:21:16.198Z,2536
2017-02-09T08:21:56.698Z,2532
2017-02-09T08:22:37.192Z,2532
2017-02-09T08:23:17.742Z,2552
2017-02-09T08:23:58.228Z,2532
2017-02-09T08:24:38.720Z,2544
2017-02-09T08:25:19.239Z,2584
2017-02-09T08:25:59.757Z,2572
2017-02-09T08:26:40.176Z,2556
2017-02-09T08:27:20.798Z,2628
2017-02-09T08:28:01.268Z,2628
2017-02-09T08:28:41.787Z,2656
2017-02-09T08:29:22.479Z,2652
2017-02-09T08:30:02.959Z,2660
2017-02-09T08:30:43.490Z,2660
2017-02-09T08:31:24.079Z,2664
2017-02-09T08:32:04.766Z,2668
2017-02-09T08:32:45.493Z,2672
2017-02-09T08:33:26.083Z,2676
2017-02-09T08:34:06.544Z,2676
2017-02-09T08:34:47.042Z,2692
2017-02-09T08:35:27.568Z,2704
2017-02-09T08:36:08.031Z,2708
2017-02-09T08:36:48.549Z,2716
2017-02-09T08:37:29.012Z,2716
2017-02-09T08:38:09.548Z,2732
2017-02-09T08:38:50.113Z,2672
2017-02-09T08:39:30.602Z,2692
2017-02-09T08:40:11.112Z,2676
2017-02-09T08:40:51.675Z,2704
2017-02-09T08:41:32.154Z,2728
2017-02-09T08:42:13.529Z,2732
2017-02-09T08:42:54.109Z,2732
2017-02-09T08:43:34.611Z,2728
2017-02-09T08:44:15.059Z,2716
2017-02-09T08:44:55.605Z,2712
2017-02-09T08:45:36.059Z,2696
2017-02-09T08:46:16.570Z,2676
2017-02-09T08:46:57.033Z,2652
2017-02-09T08:47:37.504Z,2624
2017-02-09T08:48:18.015Z,2600
2017-02-09T08:48:58.514Z,2584
2017-02-09T08:49:39.016Z,2576
2017-02-09T08:50:19.495Z,2580
2017-02-09T08:51:00.036Z,2588
2017-02-09T08:51:40.537Z,2600
2017-02-09T08:52:21.088Z,2608
2017-02-09T08:53:01.603Z,2612
2017-02-09T08:53:42.134Z,2624
2017-02-09T08:54:22.607Z,2640
2017-02-09T08:55:03.120Z,2656
2017-02-09T08:55:43.552Z,2668
2017-02-09T08:56:24.042Z,2680
2017-02-09T08:57:04.527Z,2700
2017-02-09T08:57:45.241Z,2724
2017-02-09T08:58:25.776Z,2752
2017-02-09T08:59:06.361Z,2788
2017-02-09T08:59:46.844Z,2832
2017-02-09T09:00:27.402Z,2868
2017-02-09T09:01:07.888Z,2892
2017-02-09T09:01:48.388Z,2916
2017-02-09T09:02:28.900Z,2944
2017-02-09T09:03:09.657Z,2952
2017-02-09T09:03:50.134Z,2976
2017-02-09T09:04:30.667Z,2984
2017-02-09T09:05:11.307Z,2996
2017-02-09T09:05:51.791Z,3004
2017-02-09T09:06:32.359Z,3016
2017-02-09T09:07:13.555Z,3036
2017-02-09T09:07:53.995Z,3048
2017-02-09T09:08:34.898Z,3056
2017-02-09T09:09:15.533Z,3072
2017-02-09T09:09:57.238Z,3068
2017-02-09T09:10:37.734Z,3056
2017-02-09T09:11:18.368Z,3052
2017-02-09T09:11:58.856Z,3052
2017-02-09T09:12:39.315Z,3048
2017-02-09T09:13:19.903Z,3036
2017-02-09T09:14:00.560Z,3036
2017-02-09T09:14:41.083Z,3040
2017-02-09T09:15:21.656Z,3044
2017-02-09T09:16:02.305Z,3044
2017-02-09T09:16:42.928Z,3036
2017-02-09T09:17:23.218Z,3020
2017-02-09T09:18:03.727Z,2996
2017-02-09T09:18:44.815Z,2972
2017-02-09T09:19:25.079Z,2956
2017-02-09T09:20:05.660Z,2932
2017-02-09T09:20:46.228Z,2928
2017-02-09T09:21:26.747Z,2920
2017-02-09T09:22:07.644Z,2892
2017-02-09T09:22:48.142Z,2880
2017-02-09T09:23:28.690Z,2860
2017-02-09T09:24:09.232Z,2848
2017-02-09T09:24:49.694Z,2832
2017-02-09T09:25:30.235Z,2832
2017-02-09T09:26:10.689Z,2844
2017-02-09T09:26:51.173Z,2852
2017-02-09T09:27:31.861Z,2872
2017-02-09T09:28:12.336Z,2908
2017-02-09T09:28:52.879Z,2940
2017-02-09T09:29:33.389Z,2980
2017-02-09T09:30:13.903Z,3024
2017-02-09T09:30:54.367Z,3068
2017-02-09T09:31:34.820Z,3104
2017-02-09T09:32:15.353Z,3120
2017-02-09T09:32:55.789Z,3124
2017-02-09T09:33:36.277Z,3136
2017-02-09T09:34:16.778Z,3136
2017-02-09T09:34:57.239Z,3136
2017-02-09T09:35:37.737Z,3128
2017-02-09T09:36:18.288Z,3104
2017-02-09T09:36:58.784Z,3092
2017-02-09T09:37:39.287Z,3076
2017-02-09T09:38:19.739Z,3044
2017-02-09T09:39:00.215Z,3028
2017-02-09T09:39:40.673Z,3004
2017-02-09T09:40:21.201Z,2988
2017-02-09T09:41:01.707Z,2976
2017-02-09T09:41:42.234Z,2980
2017-02-09T09:42:22.805Z,2992
2017-02-09T09:43:03.293Z,2992
2017-02-09T09:43:43.830Z,2992
2017-02-09T09:44:24.395Z,2984
2017-02-09T09:45:04.926Z,2988
2017-02-09T09:45:45.437Z,2948
2017-02-09T09:46:25.952Z,2924
2017-02-09T09:48:59.702Z,3032
2017-02-09T09:49:40.278Z,3024
2017-02-09T09:50:20.818Z,2980
2017-02-09T09:51:01.300Z,2928
2017-02-09T09:51:41.825Z,2888
2017-02-09T09:52:22.339Z,2892